Denver, CO (80261)

10:27 PM MST on March 03, 2015 (GMT -0700)
Wash Park | Change Station
CLOSE
Current Station
Personal Weather Station
Location: Denver, CO
Elevation: 5348 ft
Nearby Weather Stations
Active Advisory: Winter Weather Advisory Active Notice: Local Storm Report

Elev 5348 ft 39.69 °N, 104.97 °W | Updated 6 seconds ago

Snow
Snow
19.4 °F
Feels Like 19 °F
N
1.0
Wind Variable Wind from NE
Gusts 2.0 mph

Today
High -- | Low -- °F
--% Chance of Precip.
Yesterday
High -- | Low -- °F
Precip. -- in
6:30 AM 5:54 PM
Waxing Gibbous, 98% visible
Pressure 30.06 in
Visibility 10.0 miles
Clouds Overcast 900 ft
Windchill 19 °F
Dew Point 16 °F
Humidity 88%
Rainfall 0.00 in
Snow Depth Not available.
UV 0 out of 12
Pollen .70 out of 12
Air Quality Not available.
Flu Activity Not available.
METAR KAPA 040453Z 02005KT 10SM OVC009 M08/M09 A2988 RMK AO2 SNB0356E38 SLP178 P0000 T10781094

More Conditions Fewer Conditions

Pressure 30.06 in
Visibility 10.0 miles
Clouds Overcast 900 ft
Windchill 19 °F
Dew Point 16 °F
Humidity 88%
Rainfall 0.00 in
Snow Depth Not available.
UV 0 out of 12
Pollen .70 out of 12
Air Quality Not available.
Flu Activity Not available.
METAR KAPA 040453Z 02005KT 10SM OVC009 M08/M09 A2988 RMK AO2 SNB0356E38 SLP178 P0000 T10781094

More Conditions Fewer Conditions

10-Day Weather Forecast

Almanac

Astronomy

Mar. 03, 2015 Rise Set
Actual Time
Civil Twilight
Nautical Twilight
Astronomical Twilight
Moon
Length of Visible Light
Length of Day
Tomorrow will be .
, % of the Moon is Illuminated

Today's Extremes

State Highs State Lows

Community

WunderPhotos

Upload Photos

1,802,399 photos uploaded!

WunderBlogs® & News

Nearby

Air Quality

  Air Quality AQ Index Pollutant
Not available.

Snow Depth

Station Depth Elevation

Earthquake Activity

City Distance Mag. Time & Date
Minimum magnitude displayed is 2.5.

Coastal Water Temperatures

Place Temperature

Nearby Weather Stations

Winter Weather Advisory
Statement as of 9:39 PM MST on March 03, 2015

... Winter Weather Advisory remains in effect until 5 am MST
Wednesday...

* timing... snow will gradually decrease from north to south across
the Denver Metro area after midnight... but some snow may linger
on the Palmer Divide into Wednesday morning.

* Storm total snow accumulation... 2 to 5 inches... heaviest near
the foothills.

* Wind/visibility... northeast winds 10 to 15 mph. The heavier snow
this evening may reduce visibility to a quarter mile or less for
a brief time.

* Impacts... roads will be snowpacked and icy. Expect a slick and
slow Wednesday morning commute. Allow extra time to reach your
destination safely.

Precautionary/preparedness actions...

A Winter Weather Advisory for snow means that periods of snow
will cause primarily travel difficulties. Be prepared for snow
covered roads and limited visibilities... and use caution while
driving.